sensor_id;sensor_type;location;lat;lon;timestamp;temperature;humidity
15217;DHT22;7711;46.634;14.318;2023-06-26T00:00:53;17.40;99.90
15217;DHT22;7711;46.634;14.318;2023-06-26T00:03:20;17.40;99.90
15217;DHT22;7711;46.634;14.318;2023-06-26T00:05:47;17.30;99.90
15217;DHT22;7711;46.634;14.318;2023-06-26T00:08:15;17.20;99.90
15217;DHT22;7711;46.634;14.318;2023-06-26T00:10:42;17.20;99.90
15217;DHT22;7711;46.634;14.318;2023-06-26T00:13:09;17.10;99.90
15217;DHT22;7711;46.634;14.318;2023-06-26T00:15:38;17.00;99.90
15217;DHT22;7711;46.634;14.318;2023-06-26T00:18:05;17.00;99.90
15217;DHT22;7711;46.634;14.318;2023-06-26T00:20:32;17.00;99.90
15217;DHT22;7711;46.634;14.318;2023-06-26T00:22:59;16.90;99.90
15217;DHT22;7711;46.634;14.318;2023-06-26T00:25:28;16.70;99.90
15217;DHT22;7711;46.634;14.318;2023-06-26T00:27:55;16.60;99.90
15217;DHT22;7711;46.634;14.318;2023-06-26T00:30:22;16.60;99.90
15217;DHT22;7711;46.634;14.318;2023-06-26T00:32:49;16.50;99.90
15217;DHT22;7711;46.634;14.318;2023-06-26T00:35:16;16.50;99.90
15217;DHT22;7711;46.634;14.318;2023-06-26T00:37:43;16.50;99.90
15217;DHT22;7711;46.634;14.318;2023-06-26T00:40:12;16.50;99.90
15217;DHT22;7711;46.634;14.318;2023-06-26T00:42:40;16.40;99.90
15217;DHT22;7711;46.634;14.318;2023-06-26T00:45:07;16.40;99.90
15217;DHT22;7711;46.634;14.318;2023-06-26T00:47:35;16.30;99.90
15217;DHT22;7711;46.634;14.318;2023-06-26T00:50:02;16.30;99.90
15217;DHT22;7711;46.634;14.318;2023-06-26T00:52:29;16.30;99.90
15217;DHT22;7711;46.634;14.318;2023-06-26T00:54:56;16.30;99.90
15217;DHT22;7711;46.634;14.318;2023-06-26T00:57:23;16.30;99.90
15217;DHT22;7711;46.634;14.318;2023-06-26T00:59:52;16.20;99.90
15217;DHT22;7711;46.634;14.318;2023-06-26T01:02:19;16.20;99.90
15217;DHT22;7711;46.634;14.318;2023-06-26T01:04:47;16.10;99.90
15217;DHT22;7711;46.634;14.318;2023-06-26T01:07:15;16.10;99.90
15217;DHT22;7711;46.634;14.318;2023-06-26T01:09:44;16.10;99.90
15217;DHT22;7711;46.634;14.318;2023-06-26T01:12:11;16.00;99.90
15217;DHT22;7711;46.634;14.318;2023-06-26T01:14:38;16.00;99.90
15217;DHT22;7711;46.634;14.318;2023-06-26T01:17:08;16.00;99.90
15217;DHT22;7711;46.634;14.318;2023-06-26T01:19:37;16.00;99.90
15217;DHT22;7711;46.634;14.318;2023-06-26T01:22:13;15.80;99.90
15217;DHT22;7711;46.634;14.318;2023-06-26T01:27:30;15.90;99.90
15217;DHT22;7711;46.634;14.318;2023-06-26T01:30:01;15.90;99.90
15217;DHT22;7711;46.634;14.318;2023-06-26T01:32:29;15.90;99.90
15217;DHT22;7711;46.634;14.318;2023-06-26T01:34:57;15.90;99.90
15217;DHT22;7711;46.634;14.318;2023-06-26T01:37:24;15.90;99.90
15217;DHT22;7711;46.634;14.318;2023-06-26T01:39:51;15.90;99.90
15217;DHT22;7711;46.634;14.318;2023-06-26T01:42:18;15.90;99.90
15217;DHT22;7711;46.634;14.318;2023-06-26T01:44:47;15.80;99.90
15217;DHT22;7711;46.634;14.318;2023-06-26T01:47:18;15.70;99.90
15217;DHT22;7711;46.634;14.318;2023-06-26T01:49:49;15.60;99.90
15217;DHT22;7711;46.634;14.318;2023-06-26T01:52:20;15.50;99.90
15217;DHT22;7711;46.634;14.318;2023-06-26T01:54:58;15.70;99.90
15217;DHT22;7711;46.634;14.318;2023-06-26T01:57:27;15.70;99.90
15217;DHT22;7711;46.634;14.318;2023-06-26T01:59:58;15.60;99.90
15217;DHT22;7711;46.634;14.318;2023-06-26T02:02:25;15.60;99.90
15217;DHT22;7711;46.634;14.318;2023-06-26T02:04:52;15.60;99.90
15217;DHT22;7711;46.634;14.318;2023-06-26T02:07:19;15.70;99.90
15217;DHT22;7711;46.634;14.318;2023-06-26T02:09:46;15.70;99.90
15217;DHT22;7711;46.634;14.318;2023-06-26T02:12:13;15.60;99.90
15217;DHT22;7711;46.634;14.318;2023-06-26T02:14:40;15.60;99.90
15217;DHT22;7711;46.634;14.318;2023-06-26T02:17:09;15.60;99.90
15217;DHT22;7711;46.634;14.318;2023-06-26T02:19:36;15.60;99.90
15217;DHT22;7711;46.634;14.318;2023-06-26T02:22:13;15.60;99.90
15217;DHT22;7711;46.634;14.318;2023-06-26T02:24:40;15.50;99.90
15217;DHT22;7711;46.634;14.318;2023-06-26T02:27:07;15.40;99.90
15217;DHT22;7711;46.634;14.318;2023-06-26T02:29:34;15.40;99.90
15217;DHT22;7711;46.634;14.318;2023-06-26T02:32:01;15.40;99.90
15217;DHT22;7711;46.634;14.318;2023-06-26T02:34:30;15.40;99.90
15217;DHT22;7711;46.634;14.318;2023-06-26T02:36:57;15.30;99.90
15217;DHT22;7711;46.634;14.318;2023-06-26T02:39:24;15.30;99.90
15217;DHT22;7711;46.634;14.318;2023-06-26T02:41:51;15.20;99.90
15217;DHT22;7711;46.634;14.318;2023-06-26T02:44:18;15.10;99.90
15217;DHT22;7711;46.634;14.318;2023-06-26T02:46:45;15.20;99.90
15217;DHT22;7711;46.634;14.318;2023-06-26T02:49:12;15.10;99.90
15217;DHT22;7711;46.634;14.318;2023-06-26T02:51:40;15.00;99.90
15217;DHT22;7711;46.634;14.318;2023-06-26T02:54:07;15.10;99.90
15217;DHT22;7711;46.634;14.318;2023-06-26T02:56:34;15.10;99.90
15217;DHT22;7711;46.634;14.318;2023-06-26T02:59:01;15.00;99.90
15217;DHT22;7711;46.634;14.318;2023-06-26T03:01:28;14.90;99.90
15217;DHT22;7711;46.634;14.318;2023-06-26T03:03:55;14.90;99.90
15217;DHT22;7711;46.634;14.318;2023-06-26T03:06:22;14.90;99.90
15217;DHT22;7711;46.634;14.318;2023-06-26T03:08:50;14.80;99.90
15217;DHT22;7711;46.634;14.318;2023-06-26T03:11:17;14.70;99.90
15217;DHT22;7711;46.634;14.318;2023-06-26T03:13:44;14.80;99.90
15217;DHT22;7711;46.634;14.318;2023-06-26T03:16:11;14.80;99.90
15217;DHT22;7711;46.634;14.318;2023-06-26T03:18:38;14.80;99.90
15217;DHT22;7711;46.634;14.318;2023-06-26T03:21:05;14.80;99.90
15217;DHT22;7711;46.634;14.318;2023-06-26T03:23:32;14.70;99.90
15217;DHT22;7711;46.634;14.318;2023-06-26T03:26:01;14.70;99.90
15217;DHT22;7711;46.634;14.318;2023-06-26T03:28:28;14.70;99.90
15217;DHT22;7711;46.634;14.318;2023-06-26T03:30:56;14.70;99.90
15217;DHT22;7711;46.634;14.318;2023-06-26T03:33:23;14.70;99.90
15217;DHT22;7711;46.634;14.318;2023-06-26T03:35:50;14.80;99.90
15217;DHT22;7711;46.634;14.318;2023-06-26T03:38:17;14.90;99.90
15217;DHT22;7711;46.634;14.318;2023-06-26T03:40:44;15.00;99.90
15217;DHT22;7711;46.634;14.318;2023-06-26T03:43:12;15.00;99.90
15217;DHT22;7711;46.634;14.318;2023-06-26T03:45:39;15.10;99.90
15217;DHT22;7711;46.634;14.318;2023-06-26T03:48:06;15.10;99.90
15217;DHT22;7711;46.634;14.318;2023-06-26T03:50:35;15.10;99.90
15217;DHT22;7711;46.634;14.318;2023-06-26T03:53:02;15.20;99.90
15217;DHT22;7711;46.634;14.318;2023-06-26T03:55:29;15.20;99.90
15217;DHT22;7711;46.634;14.318;2023-06-26T03:57:57;15.10;99.90
15217;DHT22;7711;46.634;14.318;2023-06-26T04:00:25;15.10;99.90
15217;DHT22;7711;46.634;14.318;2023-06-26T04:02:52;15.10;99.90
15217;DHT22;7711;46.634;14.318;2023-06-26T04:05:19;15.20;99.90
15217;DHT22;7711;46.634;14.318;2023-06-26T04:07:49;15.10;99.90
15217;DHT22;7711;46.634;14.318;2023-06-26T04:10:16;15.20;99.90
15217;DHT22;7711;46.634;14.318;2023-06-26T04:12:43;15.20;99.90
15217;DHT22;7711;46.634;14.318;2023-06-26T04:15:10;15.30;99.90
15217;DHT22;7711;46.634;14.318;2023-06-26T04:17:39;15.30;99.90
15217;DHT22;7711;46.634;14.318;2023-06-26T04:20:07;15.20;99.90
15217;DHT22;7711;46.634;14.318;2023-06-26T04:22:34;15.20;99.90
15217;DHT22;7711;46.634;14.318;2023-06-26T04:25:02;15.20;99.90
15217;DHT22;7711;46.634;14.318;2023-06-26T04:27:29;15.30;99.90
15217;DHT22;7711;46.634;14.318;2023-06-26T04:29:57;15.30;99.90
15217;DHT22;7711;46.634;14.318;2023-06-26T04:32:24;15.40;99.90
15217;DHT22;7711;46.634;14.318;2023-06-26T04:34:52;15.50;99.90
15217;DHT22;7711;46.634;14.318;2023-06-26T04:37:19;15.60;99.90
15217;DHT22;7711;46.634;14.318;2023-06-26T04:39:46;15.70;99.90
15217;DHT22;7711;46.634;14.318;2023-06-26T04:42:13;15.80;99.90
15217;DHT22;7711;46.634;14.318;2023-06-26T04:44:40;15.90;99.90
15217;DHT22;7711;46.634;14.318;2023-06-26T04:47:08;16.00;99.90
15217;DHT22;7711;46.634;14.318;2023-06-26T04:49:35;16.10;99.90
15217;DHT22;7711;46.634;14.318;2023-06-26T04:52:03;16.10;99.90
15217;DHT22;7711;46.634;14.318;2023-06-26T04:54:30;16.30;99.90
15217;DHT22;7711;46.634;14.318;2023-06-26T04:56:57;16.30;99.90
15217;DHT22;7711;46.634;14.318;2023-06-26T04:59:25;16.40;99.90
15217;DHT22;7711;46.634;14.318;2023-06-26T05:01:52;16.50;99.90
15217;DHT22;7711;46.634;14.318;2023-06-26T05:04:19;16.60;99.90
15217;DHT22;7711;46.634;14.318;2023-06-26T05:06:46;16.70;99.90
15217;DHT22;7711;46.634;14.318;2023-06-26T05:09:14;16.70;99.90
15217;DHT22;7711;46.634;14.318;2023-06-26T05:11:41;16.70;99.90
15217;DHT22;7711;46.634;14.318;2023-06-26T05:14:08;16.90;99.90
15217;DHT22;7711;46.634;14.318;2023-06-26T05:16:35;17.00;99.90
15217;DHT22;7711;46.634;14.318;2023-06-26T05:19:02;17.10;99.90
15217;DHT22;7711;46.634;14.318;2023-06-26T05:21:29;17.20;99.90
15217;DHT22;7711;46.634;14.318;2023-06-26T05:23:57;17.30;99.90
15217;DHT22;7711;46.634;14.318;2023-06-26T05:26:27;17.30;99.90
15217;DHT22;7711;46.634;14.318;2023-06-26T05:28:54;17.50;99.90
15217;DHT22;7711;46.634;14.318;2023-06-26T05:31:23;17.50;99.90
15217;DHT22;7711;46.634;14.318;2023-06-26T05:33:53;17.60;99.90
15217;DHT22;7711;46.634;14.318;2023-06-26T05:36:22;17.70;99.90
15217;DHT22;7711;46.634;14.318;2023-06-26T05:38:51;17.80;99.90
15217;DHT22;7711;46.634;14.318;2023-06-26T05:41:18;17.80;99.90
15217;DHT22;7711;46.634;14.318;2023-06-26T05:43:46;17.90;99.90
15217;DHT22;7711;46.634;14.318;2023-06-26T05:46:13;18.00;99.90
15217;DHT22;7711;46.634;14.318;2023-06-26T05:48:40;18.10;99.90
15217;DHT22;7711;46.634;14.318;2023-06-26T05:51:08;18.10;99.90
15217;DHT22;7711;46.634;14.318;2023-06-26T05:53:35;18.30;99.90
15217;DHT22;7711;46.634;14.318;2023-06-26T05:56:03;18.40;99.90
15217;DHT22;7711;46.634;14.318;2023-06-26T05:58:30;18.50;99.90
15217;DHT22;7711;46.634;14.318;2023-06-26T06:00:58;18.50;99.90
15217;DHT22;7711;46.634;14.318;2023-06-26T06:03:25;18.50;99.90
15217;DHT22;7711;46.634;14.318;2023-06-26T06:05:52;18.40;99.90
15217;DHT22;7711;46.634;14.318;2023-06-26T06:08:19;18.60;99.90
15217;DHT22;7711;46.634;14.318;2023-06-26T06:10:46;18.80;99.90
15217;DHT22;7711;46.634;14.318;2023-06-26T06:13:13;18.80;99.90
15217;DHT22;7711;46.634;14.318;2023-06-26T06:15:40;18.80;99.90
15217;DHT22;7711;46.634;14.318;2023-06-26T06:18:09;19.00;99.90
15217;DHT22;7711;46.634;14.318;2023-06-26T06:20:36;19.10;99.90
15217;DHT22;7711;46.634;14.318;2023-06-26T06:23:03;19.20;99.90
15217;DHT22;7711;46.634;14.318;2023-06-26T06:25:30;19.10;99.90
15217;DHT22;7711;46.634;14.318;2023-06-26T06:27:57;19.40;99.90
15217;DHT22;7711;46.634;14.318;2023-06-26T06:30:24;19.60;99.90
15217;DHT22;7711;46.634;14.318;2023-06-26T06:32:51;19.70;99.90
15217;DHT22;7711;46.634;14.318;2023-06-26T06:35:19;19.70;99.90
15217;DHT22;7711;46.634;14.318;2023-06-26T06:37:46;19.90;99.90
15217;DHT22;7711;46.634;14.318;2023-06-26T06:40:15;20.00;99.90
15217;DHT22;7711;46.634;14.318;2023-06-26T06:42:42;20.10;99.90
15217;DHT22;7711;46.634;14.318;2023-06-26T06:45:09;20.40;99.90
15217;DHT22;7711;46.634;14.318;2023-06-26T06:47:36;20.60;99.90
15217;DHT22;7711;46.634;14.318;2023-06-26T06:50:04;20.60;99.90
15217;DHT22;7711;46.634;14.318;2023-06-26T06:52:37;20.40;99.90
15217;DHT22;7711;46.634;14.318;2023-06-26T06:55:05;20.40;99.90
15217;DHT22;7711;46.634;14.318;2023-06-26T06:57:34;20.40;99.90
15217;DHT22;7711;46.634;14.318;2023-06-26T07:00:03;20.90;99.90
15217;DHT22;7711;46.634;14.318;2023-06-26T07:02:31;21.20;99.90
15217;DHT22;7711;46.634;14.318;2023-06-26T07:04:58;21.40;99.90
15217;DHT22;7711;46.634;14.318;2023-06-26T07:07:29;21.60;99.90
15217;DHT22;7711;46.634;14.318;2023-06-26T07:09:59;21.50;99.90
15217;DHT22;7711;46.634;14.318;2023-06-26T07:12:26;21.00;99.90
15217;DHT22;7711;46.634;14.318;2023-06-26T07:14:53;21.00;99.90
15217;DHT22;7711;46.634;14.318;2023-06-26T07:17:20;21.30;99.90
15217;DHT22;7711;46.634;14.318;2023-06-26T07:19:47;21.70;99.90
15217;DHT22;7711;46.634;14.318;2023-06-26T07:22:14;21.80;99.90
15217;DHT22;7711;46.634;14.318;2023-06-26T07:24:41;21.70;99.90
15217;DHT22;7711;46.634;14.318;2023-06-26T07:27:10;21.80;99.90
15217;DHT22;7711;46.634;14.318;2023-06-26T07:29:37;21.90;99.90
15217;DHT22;7711;46.634;14.318;2023-06-26T07:32:04;21.70;99.90
15217;DHT22;7711;46.634;14.318;2023-06-26T07:34:31;22.00;99.90
15217;DHT22;7711;46.634;14.318;2023-06-26T07:36:59;21.60;99.90
15217;DHT22;7711;46.634;14.318;2023-06-26T07:39:26;21.80;99.90
15217;DHT22;7711;46.634;14.318;2023-06-26T07:41:53;21.80;99.90
15217;DHT22;7711;46.634;14.318;2023-06-26T07:44:22;21.90;99.90
15217;DHT22;7711;46.634;14.318;2023-06-26T07:46:49;22.20;99.90
15217;DHT22;7711;46.634;14.318;2023-06-26T07:49:16;22.60;99.90
15217;DHT22;7711;46.634;14.318;2023-06-26T07:51:44;22.80;99.90
15217;DHT22;7711;46.634;14.318;2023-06-26T07:54:11;22.50;99.90
15217;DHT22;7711;46.634;14.318;2023-06-26T07:56:53;22.60;99.90
15217;DHT22;7711;46.634;14.318;2023-06-26T07:59:22;23.00;99.20
15217;DHT22;7711;46.634;14.318;2023-06-26T08:01:51;23.10;98.30
15217;DHT22;7711;46.634;14.318;2023-06-26T08:04:18;23.20;99.90
15217;DHT22;7711;46.634;14.318;2023-06-26T08:06:48;23.00;95.30
15217;DHT22;7711;46.634;14.318;2023-06-26T08:09:15;22.80;96.70
15217;DHT22;7711;46.634;14.318;2023-06-26T08:11:43;22.90;96.40
15217;DHT22;7711;46.634;14.318;2023-06-26T08:14:10;22.90;97.60
15217;DHT22;7711;46.634;14.318;2023-06-26T08:16:40;23.20;96.40
15217;DHT22;7711;46.634;14.318;2023-06-26T08:19:07;23.40;94.60
15217;DHT22;7711;46.634;14.318;2023-06-26T08:21:34;23.80;94.90
15217;DHT22;7711;46.634;14.318;2023-06-26T08:24:01;23.60;92.30
15217;DHT22;7711;46.634;14.318;2023-06-26T08:26:28;23.70;92.50
15217;DHT22;7711;46.634;14.318;2023-06-26T08:28:55;23.80;94.00
15217;DHT22;7711;46.634;14.318;2023-06-26T08:31:22;23.60;90.50
15217;DHT22;7711;46.634;14.318;2023-06-26T08:33:50;23.80;91.70
15217;DHT22;7711;46.634;14.318;2023-06-26T08:36:17;24.10;88.70
15217;DHT22;7711;46.634;14.318;2023-06-26T08:38:44;24.10;89.10
15217;DHT22;7711;46.634;14.318;2023-06-26T08:41:12;24.40;90.00
15217;DHT22;7711;46.634;14.318;2023-06-26T08:43:39;24.70;91.40
15217;DHT22;7711;46.634;14.318;2023-06-26T08:46:06;24.70;90.10
15217;DHT22;7711;46.634;14.318;2023-06-26T08:48:33;24.80;87.10
15217;DHT22;7711;46.634;14.318;2023-06-26T08:51:07;24.80;84.80
15217;DHT22;7711;46.634;14.318;2023-06-26T08:53:43;25.10;86.00
15217;DHT22;7711;46.634;14.318;2023-06-26T08:56:14;25.20;81.10
15217;DHT22;7711;46.634;14.318;2023-06-26T08:58:43;25.20;78.70
15217;DHT22;7711;46.634;14.318;2023-06-26T09:01:10;25.20;80.20
15217;DHT22;7711;46.634;14.318;2023-06-26T09:03:38;24.80;73.30
15217;DHT22;7711;46.634;14.318;2023-06-26T09:06:08;24.40;73.30
15217;DHT22;7711;46.634;14.318;2023-06-26T09:08:35;24.50;75.70
15217;DHT22;7711;46.634;14.318;2023-06-26T09:11:02;24.70;74.70
15217;DHT22;7711;46.634;14.318;2023-06-26T09:13:29;25.00;75.30
15217;DHT22;7711;46.634;14.318;2023-06-26T09:15:56;25.20;75.40
15217;DHT22;7711;46.634;14.318;2023-06-26T09:18:24;25.50;77.50
15217;DHT22;7711;46.634;14.318;2023-06-26T09:20:51;25.30;69.50
15217;DHT22;7711;46.634;14.318;2023-06-26T09:23:21;25.40;68.00
15217;DHT22;7711;46.634;14.318;2023-06-26T09:25:49;25.30;67.50
15217;DHT22;7711;46.634;14.318;2023-06-26T09:28:17;25.20;65.10
15217;DHT22;7711;46.634;14.318;2023-06-26T09:30:44;24.70;64.10
15217;DHT22;7711;46.634;14.318;2023-06-26T09:33:16;24.70;62.20
15217;DHT22;7711;46.634;14.318;2023-06-26T09:35:43;25.00;62.30
15217;DHT22;7711;46.634;14.318;2023-06-26T09:38:11;25.30;64.60
15217;DHT22;7711;46.634;14.318;2023-06-26T09:40:40;25.40;59.80
15217;DHT22;7711;46.634;14.318;2023-06-26T09:43:09;25.20;59.90
15217;DHT22;7711;46.634;14.318;2023-06-26T09:45:36;25.40;59.30
15217;DHT22;7711;46.634;14.318;2023-06-26T09:48:03;25.40;56.30
15217;DHT22;7711;46.634;14.318;2023-06-26T09:50:32;25.50;57.50
15217;DHT22;7711;46.634;14.318;2023-06-26T09:53:07;25.70;57.30
15217;DHT22;7711;46.634;14.318;2023-06-26T09:55:35;25.80;53.50
15217;DHT22;7711;46.634;14.318;2023-06-26T09:58:04;25.80;53.00
15217;DHT22;7711;46.634;14.318;2023-06-26T10:00:32;25.90;51.30
15217;DHT22;7711;46.634;14.318;2023-06-26T10:02:59;26.00;51.00
15217;DHT22;7711;46.634;14.318;2023-06-26T10:05:26;26.10;49.40
15217;DHT22;7711;46.634;14.318;2023-06-26T10:07:54;26.40;51.70
15217;DHT22;7711;46.634;14.318;2023-06-26T10:10:23;26.90;52.90
15217;DHT22;7711;46.634;14.318;2023-06-26T10:12:54;27.00;50.60
15217;DHT22;7711;46.634;14.318;2023-06-26T10:15:23;27.00;45.30
15217;DHT22;7711;46.634;14.318;2023-06-26T10:17:55;27.20;41.80
15217;DHT22;7711;46.634;14.318;2023-06-26T10:20:24;27.50;42.80
15217;DHT22;7711;46.634;14.318;2023-06-26T10:22:51;27.50;39.60
15217;DHT22;7711;46.634;14.318;2023-06-26T10:25:20;27.20;41.20
15217;DHT22;7711;46.634;14.318;2023-06-26T10:27:52;27.30;37.00
15217;DHT22;7711;46.634;14.318;2023-06-26T10:30:24;27.10;35.50
15217;DHT22;7711;46.634;14.318;2023-06-26T10:32:53;26.60;35.40
15217;DHT22;7711;46.634;14.318;2023-06-26T10:35:20;27.30;36.70
15217;DHT22;7711;46.634;14.318;2023-06-26T10:37:48;27.50;34.30
15217;DHT22;7711;46.634;14.318;2023-06-26T10:40:21;27.80;35.80
15217;DHT22;7711;46.634;14.318;2023-06-26T10:42:48;28.10;35.00
15217;DHT22;7711;46.634;14.318;2023-06-26T10:45:16;28.20;33.20
15217;DHT22;7711;46.634;14.318;2023-06-26T10:47:48;28.30;30.00
15217;DHT22;7711;46.634;14.318;2023-06-26T10:50:25;28.20;28.80
15217;DHT22;7711;46.634;14.318;2023-06-26T10:53:08;28.40;30.80
15217;DHT22;7711;46.634;14.318;2023-06-26T10:55:36;28.70;35.00
15217;DHT22;7711;46.634;14.318;2023-06-26T10:58:03;29.00;29.70
15217;DHT22;7711;46.634;14.318;2023-06-26T11:00:30;29.40;26.10
15217;DHT22;7711;46.634;14.318;2023-06-26T11:02:59;28.30;21.30
15217;DHT22;7711;46.634;14.318;2023-06-26T11:05:28;28.40;22.20
15217;DHT22;7711;46.634;14.318;2023-06-26T11:08:06;28.60;22.30
15217;DHT22;7711;46.634;14.318;2023-06-26T11:10:48;28.70;22.00
15217;DHT22;7711;46.634;14.318;2023-06-26T11:13:17;29.10;21.00
15217;DHT22;7711;46.634;14.318;2023-06-26T11:15:45;29.30;19.70
15217;DHT22;7711;46.634;14.318;2023-06-26T11:18:13;29.40;20.50
15217;DHT22;7711;46.634;14.318;2023-06-26T11:20:41;29.30;16.60
15217;DHT22;7711;46.634;14.318;2023-06-26T11:23:08;29.70;18.40
15217;DHT22;7711;46.634;14.318;2023-06-26T11:25:36;30.00;16.00
15217;DHT22;7711;46.634;14.318;2023-06-26T11:28:04;30.00;18.10
15217;DHT22;7711;46.634;14.318;2023-06-26T11:30:32;30.10;16.30
15217;DHT22;7711;46.634;14.318;2023-06-26T11:33:05;29.90;14.00
15217;DHT22;7711;46.634;14.318;2023-06-26T11:35:34;30.10;16.50
15217;DHT22;7711;46.634;14.318;2023-06-26T11:38:02;30.40;14.90
15217;DHT22;7711;46.634;14.318;2023-06-26T11:40:32;30.60;11.80
15217;DHT22;7711;46.634;14.318;2023-06-26T11:42:59;30.70;11.20
15217;DHT22;7711;46.634;14.318;2023-06-26T11:45:28;30.70;11.70
15217;DHT22;7711;46.634;14.318;2023-06-26T11:47:56;29.70;3.20
15217;DHT22;7711;46.634;14.318;2023-06-26T11:50:24;29.50;7.00
15217;DHT22;7711;46.634;14.318;2023-06-26T11:52:56;30.00;9.30
15217;DHT22;7711;46.634;14.318;2023-06-26T11:55:23;30.50;10.80
15217;DHT22;7711;46.634;14.318;2023-06-26T11:57:52;30.60;5.60
15217;DHT22;7711;46.634;14.318;2023-06-26T12:00:20;30.70;5.00
15217;DHT22;7711;46.634;14.318;2023-06-26T12:02:47;30.70;5.60
15217;DHT22;7711;46.634;14.318;2023-06-26T12:05:16;30.80;3.30
15217;DHT22;7711;46.634;14.318;2023-06-26T12:07:45;31.20;6.40
15217;DHT22;7711;46.634;14.318;2023-06-26T12:10:14;31.10;2.90
15217;DHT22;7711;46.634;14.318;2023-06-26T12:12:42;31.00;1.00
15217;DHT22;7711;46.634;14.318;2023-06-26T12:15:15;30.80;1.00
15217;DHT22;7711;46.634;14.318;2023-06-26T12:17:42;30.70;2.70
15217;DHT22;7711;46.634;14.318;2023-06-26T12:20:18;30.90;1.00
15217;DHT22;7711;46.634;14.318;2023-06-26T12:22:46;31.20;1.00
15217;DHT22;7711;46.634;14.318;2023-06-26T12:25:16;31.50;1.00
15217;DHT22;7711;46.634;14.318;2023-06-26T12:27:48;31.50;1.00
15217;DHT22;7711;46.634;14.318;2023-06-26T12:30:15;31.60;1.00
15217;DHT22;7711;46.634;14.318;2023-06-26T12:32:44;31.10;1.00
15217;DHT22;7711;46.634;14.318;2023-06-26T12:35:12;31.10;1.00
15217;DHT22;7711;46.634;14.318;2023-06-26T12:37:39;31.20;1.00
15217;DHT22;7711;46.634;14.318;2023-06-26T12:40:17;31.30;1.00
15217;DHT22;7711;46.634;14.318;2023-06-26T12:42:47;31.50;1.00
15217;DHT22;7711;46.634;14.318;2023-06-26T12:45:15;31.70;1.00
15217;DHT22;7711;46.634;14.318;2023-06-26T12:47:42;31.80;1.00
15217;DHT22;7711;46.634;14.318;2023-06-26T12:50:09;31.60;1.00
15217;DHT22;7711;46.634;14.318;2023-06-26T12:52:36;32.00;1.00
15217;DHT22;7711;46.634;14.318;2023-06-26T12:55:05;32.10;1.00
15217;DHT22;7711;46.634;14.318;2023-06-26T12:57:34;32.10;1.00
15217;DHT22;7711;46.634;14.318;2023-06-26T13:00:01;32.20;1.00
15217;DHT22;7711;46.634;14.318;2023-06-26T13:02:28;32.20;1.00
15217;DHT22;7711;46.634;14.318;2023-06-26T13:04:55;32.00;1.00
15217;DHT22;7711;46.634;14.318;2023-06-26T13:07:22;32.60;1.00
15217;DHT22;7711;46.634;14.318;2023-06-26T13:09:50;32.50;1.00
15217;DHT22;7711;46.634;14.318;2023-06-26T13:12:17;32.90;1.00
15217;DHT22;7711;46.634;14.318;2023-06-26T13:14:46;32.40;1.00
15217;DHT22;7711;46.634;14.318;2023-06-26T13:17:13;32.70;1.00
15217;DHT22;7711;46.634;14.318;2023-06-26T13:19:40;32.90;1.00
15217;DHT22;7711;46.634;14.318;2023-06-26T13:22:07;33.30;1.00
15217;DHT22;7711;46.634;14.318;2023-06-26T13:24:34;32.90;1.00
15217;DHT22;7711;46.634;14.318;2023-06-26T13:27:01;32.80;1.00
15217;DHT22;7711;46.634;14.318;2023-06-26T13:29:28;32.80;1.00
15217;DHT22;7711;46.634;14.318;2023-06-26T13:31:57;32.60;1.00
15217;DHT22;7711;46.634;14.318;2023-06-26T13:34:24;32.50;1.00
15217;DHT22;7711;46.634;14.318;2023-06-26T13:36:53;33.30;1.00
15217;DHT22;7711;46.634;14.318;2023-06-26T13:39:20;33.60;1.00
15217;DHT22;7711;46.634;14.318;2023-06-26T13:41:47;32.70;1.00
15217;DHT22;7711;46.634;14.318;2023-06-26T13:44:14;33.60;1.00
15217;DHT22;7711;46.634;14.318;2023-06-26T13:46:41;34.50;1.00
15217;DHT22;7711;46.634;14.318;2023-06-26T13:49:09;34.70;1.00
15217;DHT22;7711;46.634;14.318;2023-06-26T13:51:36;35.80;1.00
15217;DHT22;7711;46.634;14.318;2023-06-26T13:54:03;36.40;1.00
15217;DHT22;7711;46.634;14.318;2023-06-26T13:56:30;36.50;1.00
15217;DHT22;7711;46.634;14.318;2023-06-26T13:58:57;36.70;1.00
15217;DHT22;7711;46.634;14.318;2023-06-26T14:01:25;37.00;1.00
15217;DHT22;7711;46.634;14.318;2023-06-26T14:03:52;37.00;1.00
15217;DHT22;7711;46.634;14.318;2023-06-26T14:06:20;37.50;1.00
15217;DHT22;7711;46.634;14.318;2023-06-26T14:08:47;37.70;1.00
15217;DHT22;7711;46.634;14.318;2023-06-26T14:11:14;37.80;1.00
15217;DHT22;7711;46.634;14.318;2023-06-26T14:13:42;36.40;1.00
15217;DHT22;7711;46.634;14.318;2023-06-26T14:16:09;36.80;1.00
15217;DHT22;7711;46.634;14.318;2023-06-26T14:18:36;37.10;1.00
15217;DHT22;7711;46.634;14.318;2023-06-26T14:21:03;37.50;1.00
15217;DHT22;7711;46.634;14.318;2023-06-26T14:23:31;36.80;1.00
15217;DHT22;7711;46.634;14.318;2023-06-26T14:25:58;37.30;1.00
15217;DHT22;7711;46.634;14.318;2023-06-26T14:28:25;35.80;1.00
15217;DHT22;7711;46.634;14.318;2023-06-26T14:30:52;36.20;1.00
15217;DHT22;7711;46.634;14.318;2023-06-26T14:33:19;36.40;1.00
15217;DHT22;7711;46.634;14.318;2023-06-26T14:35:46;37.40;1.00
15217;DHT22;7711;46.634;14.318;2023-06-26T14:38:13;37.30;1.00
15217;DHT22;7711;46.634;14.318;2023-06-26T14:40:41;37.30;1.00
15217;DHT22;7711;46.634;14.318;2023-06-26T14:43:08;38.30;1.00
15217;DHT22;7711;46.634;14.318;2023-06-26T14:45:35;38.00;1.00
15217;DHT22;7711;46.634;14.318;2023-06-26T14:48:02;38.40;1.00
15217;DHT22;7711;46.634;14.318;2023-06-26T14:50:29;38.50;1.00
15217;DHT22;7711;46.634;14.318;2023-06-26T14:52:56;38.40;1.00
15217;DHT22;7711;46.634;14.318;2023-06-26T14:55:23;38.70;1.00
15217;DHT22;7711;46.634;14.318;2023-06-26T14:57:51;38.50;1.00
15217;DHT22;7711;46.634;14.318;2023-06-26T15:00:19;38.30;1.00
15217;DHT22;7711;46.634;14.318;2023-06-26T15:02:47;38.30;1.00
15217;DHT22;7711;46.634;14.318;2023-06-26T15:05:14;38.60;1.00
15217;DHT22;7711;46.634;14.318;2023-06-26T15:07:41;38.20;1.00
15217;DHT22;7711;46.634;14.318;2023-06-26T15:10:08;38.50;1.00
15217;DHT22;7711;46.634;14.318;2023-06-26T15:12:35;38.10;1.00
15217;DHT22;7711;46.634;14.318;2023-06-26T15:15:04;37.70;1.00
15217;DHT22;7711;46.634;14.318;2023-06-26T15:17:33;37.20;1.00
15217;DHT22;7711;46.634;14.318;2023-06-26T15:20:00;36.30;1.00
15217;DHT22;7711;46.634;14.318;2023-06-26T15:22:27;37.00;1.00
15217;DHT22;7711;46.634;14.318;2023-06-26T15:24:54;37.70;1.00
15217;DHT22;7711;46.634;14.318;2023-06-26T15:27:21;38.00;1.00
15217;DHT22;7711;46.634;14.318;2023-06-26T15:29:48;38.30;1.00
15217;DHT22;7711;46.634;14.318;2023-06-26T15:32:16;38.70;1.00
15217;DHT22;7711;46.634;14.318;2023-06-26T15:34:43;37.60;1.00
15217;DHT22;7711;46.634;14.318;2023-06-26T15:37:10;37.10;1.00
15217;DHT22;7711;46.634;14.318;2023-06-26T15:39:37;37.30;1.00
15217;DHT22;7711;46.634;14.318;2023-06-26T15:42:05;37.40;1.00